Time;durP1;ratioP1;P1;durP2;ratioP2;P2;SDS_P1;SDS_P2;PMS_P1;PMS_P2;Temp;Humidity;BMP_temperature;BMP_pressure;BME280_temperature;BME280_humidity;BME280_pressure;Samples;Min_cycle;Max_cycle;Signal;HPM_P1;HPM_P2
2022/01/08 00:00:08;;;;;;;4.10;2.17;;;17.60;49.50;;;;;;5090715;28;44721;-85
2022/01/08 00:02:35;;;;;;;3.13;2.05;;;17.50;49.70;;;;;;5078801;28;44700;-84
2022/01/08 00:05:03;;;;;;;2.10;1.60;;;18.70;54.20;;;;;;5071398;28;44913;-84
2022/01/08 00:07:31;;;;;;;3.53;1.77;;;17.60;49.80;;;;;;5087568;28;45773;-84
2022/01/08 00:09:58;;;;;;;4.60;1.90;;;17.60;51.70;;;;;;5079200;28;44714;-85
2022/01/08 00:12:28;;;;;;;2.85;1.63;;;18.90;56.10;;;;;;5080453;28;44755;-87
2022/01/08 00:14:55;;;;;;;2.70;1.52;;;17.90;55.00;;;;;;5078911;28;44742;-85
2022/01/08 00:17:23;;;;;;;2.38;1.45;;;17.70;55.70;;;;;;5082795;28;47677;-85
2022/01/08 00:19:50;;;;;;;2.33;1.52;;;17.60;49.00;;;;;;5091871;28;44669;-84
2022/01/08 00:22:18;;;;;;;3.28;1.70;;;18.00;52.90;;;;;;5081308;28;44936;-85
2022/01/08 00:24:45;;;;;;;3.03;1.63;;;19.10;56.30;;;;;;5072347;28;44899;-84
2022/01/08 00:27:12;;;;;;;2.15;1.25;;;17.80;51.70;;;;;;5082716;28;47716;-85
2022/01/08 00:29:41;;;;;;;2.92;1.40;;;17.50;56.30;;;;;;5091892;28;44946;-84
2022/01/08 00:32:09;;;;;;;2.58;1.40;;;18.60;57.00;;;;;;5090813;28;44783;-85
2022/01/08 00:34:37;;;;;;;2.33;1.45;;;17.60;49.20;;;;;;5079512;28;44753;-85
2022/01/08 00:37:08;;;;;;;2.38;1.33;;;17.90;52.30;;;;;;5078273;28;45355;-85
2022/01/08 00:39:39;;;;;;;1.38;0.90;;;17.80;51.40;;;;;;5088613;28;44723;-84
2022/01/08 00:42:06;;;;;;;2.33;1.10;;;17.60;49.20;;;;;;5081435;28;44652;-85
2022/01/08 00:44:34;;;;;;;2.15;1.10;;;17.60;51.90;;;;;;5090539;28;44916;-84
2022/01/08 00:47:02;;;;;;;3.72;1.65;;;17.70;52.90;;;;;;5085731;28;45728;-85
2022/01/08 00:49:30;;;;;;;3.13;1.50;;;17.80;53.70;;;;;;5091423;28;44792;-85
2022/01/08 00:51:57;;;;;;;2.88;1.30;;;17.70;54.80;;;;;;5090487;28;44609;-84
2022/01/08 00:54:25;;;;;;;4.28;1.08;;;18.00;54.10;;;;;;5078357;28;45235;-84
2022/01/08 00:56:53;;;;;;;3.08;1.35;;;17.70;53.40;;;;;;5072655;28;47190;-85
2022/01/08 00:59:20;;;;;;;2.13;1.10;;;17.60;51.20;;;;;;5078823;28;44920;-85
2022/01/08 01:01:48;;;;;;;1.27;0.88;;;17.50;56.80;;;;;;5083107;28;44684;-85
2022/01/08 01:04:16;;;;;;;2.40;1.23;;;20.10;52.80;;;;;;5080174;28;44692;-83
2022/01/08 01:06:43;;;;;;;2.13;1.17;;;17.60;48.20;;;;;;5085365;28;46252;-84
2022/01/08 01:09:11;;;;;;;3.83;1.10;;;17.60;50.70;;;;;;5091034;28;44828;-83
2022/01/08 01:11:39;;;;;;;2.70;1.40;;;17.90;51.80;;;;;;5078687;28;45081;-84
2022/01/08 01:14:06;;;;;;;2.67;1.10;;;17.80;50.20;;;;;;5089349;28;45926;-83
2022/01/08 01:16:33;;;;;;;2.50;1.02;;;17.50;48.10;;;;;;5082858;28;46744;-84
2022/01/08 01:19:03;;;;;;;2.50;0.88;;;17.50;47.70;;;;;;5073641;28;45362;-85
2022/01/08 01:21:32;;;;;;;1.45;0.90;;;17.50;48.00;;;;;;5084117;28;44730;-84
2022/01/08 01:24:08;;;;;;;2.70;1.17;;;17.60;48.10;;;;;;5088368;28;44758;-84
2022/01/08 01:26:38;;;;;;;2.35;1.13;;;17.60;48.20;;;;;;5074093;28;46342;-84
2022/01/08 01:29:25;;;;;;;2.22;1.00;;;17.60;48.20;;;;;;5092179;28;44738;-84
2022/01/08 01:43:19;;;;;;;2.85;1.20;;;17.60;47.20;;;;;;5084332;28;44731;-83
2022/01/08 01:48:37;;;;;;;1.50;1.00;;;17.60;46.90;;;;;;5037920;28;45591;-85
2022/01/08 01:51:04;;;;;;;3.35;0.95;;;17.60;47.00;;;;;;5085931;28;44636;-84
2022/01/08 01:53:33;;;;;;;2.30;0.90;;;17.60;47.00;;;;;;5091005;28;44901;-83
2022/01/08 01:56:02;;;;;;;2.20;1.15;;;17.50;47.20;;;;;;5081129;28;45002;-84
2022/01/08 01:58:29;;;;;;;2.13;1.02;;;17.50;46.50;;;;;;5072869;28;48074;-83
2022/01/08 02:00:56;;;;;;;1.40;0.93;;;17.50;46.60;;;;;;5080259;28;44962;-83
2022/01/08 02:03:25;;;;;;;3.13;1.20;;;17.60;46.80;;;;;;5090357;28;44677;-83
2022/01/08 02:05:53;;;;;;;1.92;1.15;;;17.50;46.60;;;;;;5073084;28;44898;-84
2022/01/08 02:08:20;;;;;;;1.80;0.80;;;17.60;47.10;;;;;;5084523;28;47338;-83
2022/01/08 02:10:49;;;;;;;1.98;1.10;;;17.60;47.70;;;;;;5073287;28;44695;-84
2022/01/08 02:13:24;;;;;;;4.40;1.10;;;17.60;47.40;;;;;;5080210;28;44763;-84
2022/01/08 02:15:53;;;;;;;3.53;1.30;;;17.60;47.70;;;;;;5077088;28;44792;-83
2022/01/08 02:18:21;;;;;;;2.83;1.10;;;17.60;47.70;;;;;;5075769;28;47269;-84
2022/01/08 02:20:50;;;;;;;2.50;1.13;;;17.60;48.10;;;;;;5070901;28;45479;-83
2022/01/08 02:23:17;;;;;;;1.63;0.98;;;17.60;47.70;;;;;;5088481;28;46218;-83
2022/01/08 02:25:44;;;;;;;2.03;1.00;;;17.60;47.20;;;;;;5086978;28;44969;-83
2022/01/08 02:28:11;;;;;;;1.48;0.90;;;17.60;46.80;;;;;;5093087;28;46420;-84
2022/01/08 02:30:39;;;;;;;1.85;1.20;;;17.60;46.40;;;;;;5082597;28;44846;-84
2022/01/08 02:33:06;;;;;;;1.95;0.93;;;17.50;46.00;;;;;;5090666;28;44660;-83
2022/01/08 02:35:34;;;;;;;1.92;1.00;;;17.50;46.20;;;;;;5088713;28;44893;-83
2022/01/08 02:38:03;;;;;;;1.60;0.93;;;17.50;46.20;;;;;;5092004;28;46302;-83
2022/01/08 02:40:32;;;;;;;1.98;1.20;;;17.50;46.10;;;;;;5088230;28;44950;-84
2022/01/08 02:43:03;;;;;;;1.38;1.10;;;17.50;46.10;;;;;;5072658;28;44659;-84
2022/01/08 02:45:32;;;;;;;2.50;1.10;;;17.50;46.10;;;;;;5081784;28;44760;-84
2022/01/08 02:48:01;;;;;;;2.00;1.13;;;17.50;46.30;;;;;;5071896;28;47300;-84
2022/01/08 02:50:28;;;;;;;1.40;1.10;;;17.50;46.00;;;;;;5084647;28;44696;-86
2022/01/08 02:52:55;;;;;;;1.95;0.95;;;17.50;46.50;;;;;;5091155;28;44604;-84
2022/01/08 02:55:24;;;;;;;2.63;1.20;;;17.50;47.00;;;;;;5083735;28;44759;-84
2022/01/08 02:57:52;;;;;;;1.67;0.93;;;17.50;47.40;;;;;;5091652;28;46478;-84
2022/01/08 03:00:21;;;;;;;4.22;1.40;;;17.50;47.10;;;;;;5086376;28;45097;-86
2022/01/08 03:02:52;;;;;;;2.15;1.20;;;17.50;47.10;;;;;;5088626;28;44883;-84
2022/01/08 03:05:20;;;;;;;2.95;1.45;;;17.50;46.90;;;;;;5080733;28;44764;-84
2022/01/08 03:07:49;;;;;;;2.22;1.10;;;17.50;46.80;;;;;;5073870;28;47293;-85
2022/01/08 03:10:17;;;;;;;2.92;1.38;;;17.60;46.90;;;;;;5077089;28;44773;-85
2022/01/08 03:12:46;;;;;;;3.05;1.40;;;17.40;46.60;;;;;;5086944;28;44813;-85
2022/01/08 03:15:16;;;;;;;1.73;1.10;;;17.40;46.40;;;;;;5092702;28;44816;-84
2022/01/08 03:17:45;;;;;;;1.67;1.02;;;17.40;46.40;;;;;;5091848;28;47468;-85
2022/01/08 03:20:14;;;;;;;1.73;1.20;;;17.40;46.40;;;;;;5087901;28;44952;-84
2022/01/08 03:22:42;;;;;;;2.33;1.10;;;17.40;46.30;;;;;;5072316;28;45016;-85
2022/01/08 03:25:10;;;;;;;3.10;1.15;;;17.40;46.50;;;;;;5072782;28;44688;-85
2022/01/08 03:27:41;;;;;;;2.47;1.30;;;17.40;46.50;;;;;;5072226;28;47476;-85
2022/01/08 03:30:12;;;;;;;2.40;1.20;;;17.40;46.20;;;;;;5087582;28;45237;-85
2022/01/08 03:32:41;;;;;;;1.70;1.08;;;17.30;46.00;;;;;;5072053;28;44666;-84
2022/01/08 03:35:09;;;;;;;1.92;1.20;;;17.30;46.00;;;;;;5086030;28;44806;-84
2022/01/08 03:37:37;;;;;;;3.17;1.58;;;17.30;45.80;;;;;;5078644;28;45674;-85
2022/01/08 03:40:06;;;;;;;2.63;1.50;;;17.40;46.20;;;;;;5082806;28;45221;-85
2022/01/08 03:42:33;;;;;;;2.38;1.35;;;17.40;46.50;;;;;;5072195;28;44971;-84
2022/01/08 03:45:00;;;;;;;3.17;1.30;;;17.40;46.50;;;;;;5080396;28;44667;-85
2022/01/08 03:47:53;;;;;;;2.03;1.40;;;17.40;46.60;;;;;;5068810;28;46599;-85
2022/01/08 03:50:26;;;;;;;3.38;1.30;;;17.40;46.50;;;;;;5071031;28;44987;-84
2022/01/08 03:52:54;;;;;;;2.55;1.58;;;17.40;46.70;;;;;;5080797;28;44648;-84
2022/01/08 03:55:22;;;;;;;2.40;1.33;;;17.40;46.50;;;;;;5089736;28;44866;-85
2022/01/08 03:57:50;;;;;;;2.53;1.50;;;17.40;46.40;;;;;;5090898;28;45702;-85
2022/01/08 04:00:20;;;;;;;2.08;1.60;;;19.50;47.90;;;;;;5074607;28;44741;-85
2022/01/08 04:02:50;;;;;;;2.75;1.58;;;17.40;45.90;;;;;;5075044;28;44688;-85
2022/01/08 04:05:17;;;;;;;3.80;1.83;;;17.30;45.60;;;;;;5071953;28;44952;-85
2022/01/08 04:07:44;;;;;;;2.92;1.50;;;17.30;45.60;;;;;;5071261;28;47055;-86
2022/01/08 04:10:11;;;;;;;3.05;1.67;;;17.30;45.50;;;;;;5078128;28;45643;-84
2022/01/08 04:12:42;;;;;;;2.58;1.65;;;17.30;45.50;;;;;;5084442;28;44684;-84
2022/01/08 04:15:31;;;;;;;3.35;1.52;;;17.30;45.60;;;;;;5077148;28;44727;-84
2022/01/08 04:17:59;;;;;;;3.22;1.63;;;17.30;45.70;;;;;;5086222;28;45591;-84
2022/01/08 04:20:26;;;;;;;2.10;1.45;;;17.30;45.50;;;;;;5077710;28;45005;-83
2022/01/08 04:22:53;;;;;;;2.10;1.30;;;17.30;45.50;;;;;;5091600;28;45050;-84
2022/01/08 04:25:23;;;;;;;2.22;1.48;;;17.30;45.40;;;;;;5082588;28;45413;-84
2022/01/08 04:27:50;;;;;;;2.70;1.48;;;17.40;45.90;;;;;;5091092;28;47235;-84
2022/01/08 04:30:18;;;;;;;3.50;1.50;;;17.40;46.20;;;;;;5080806;28;44668;-84
2022/01/08 04:32:45;;;;;;;2.97;1.63;;;17.40;46.20;;;;;;5071342;28;44600;-85
2022/01/08 04:35:14;;;;;;;3.90;1.60;;;17.40;46.20;;;;;;5076425;28;44699;-84
2022/01/08 04:37:41;;;;;;;3.28;1.50;;;17.40;45.90;;;;;;5091266;28;47834;-84
2022/01/08 04:40:09;;;;;;;5.03;1.52;;;17.40;46.20;;;;;;5089203;28;44986;-84
2022/01/08 04:42:36;;;;;;;2.17;1.60;;;17.40;46.00;;;;;;5081453;28;44643;-84
2022/01/08 04:45:04;;;;;;;3.47;1.73;;;17.40;45.50;;;;;;5088669;28;44894;-85
2022/01/08 04:47:31;;;;;;;2.53;1.50;;;17.40;45.30;;;;;;5090477;28;46702;-85
2022/01/08 04:49:58;;;;;;;2.85;1.58;;;17.40;45.40;;;;;;5088781;28;45204;-84
2022/01/08 04:52:26;;;;;;;2.28;1.60;;;17.30;45.10;;;;;;5089493;28;44672;-85
2022/01/08 04:54:54;;;;;;;2.72;1.63;;;17.30;45.40;;;;;;5082338;28;44649;-84
2022/01/08 04:57:21;;;;;;;3.47;1.90;;;17.30;46.30;;;;;;5087651;28;45910;-84
2022/01/08 04:59:48;;;;;;;3.88;2.00;;;17.30;45.00;;;;;;5070463;28;44816;-84
2022/01/08 05:02:16;;;;;;;2.90;1.42;;;17.30;45.10;;;;;;5070634;28;44639;-85
2022/01/08 05:04:43;;;;;;;2.83;1.58;;;17.30;45.00;;;;;;5071034;28;44850;-85
2022/01/08 05:07:10;;;;;;;3.13;1.80;;;17.30;45.20;;;;;;5077126;28;45594;-85
2022/01/08 05:09:38;;;;;;;3.08;1.55;;;17.30;45.10;;;;;;5079817;28;44574;-85
2022/01/08 05:12:06;;;;;;;3.83;1.50;;;17.30;45.20;;;;;;5070878;28;44593;-85
2022/01/08 05:14:34;;;;;;;3.83;2.08;;;17.30;45.30;;;;;;5080253;28;44923;-84
2022/01/08 05:17:02;;;;;;;2.88;1.55;;;17.40;45.50;;;;;;5064914;22;45238;-84
2022/01/08 05:19:43;;;;;;;3.80;1.80;;;17.40;45.90;;;;;;5019282;28;45206;-85
2022/01/08 05:22:18;;;;;;;3.45;1.50;;;17.40;45.90;;;;;;5037851;28;45153;-85
2022/01/08 05:24:47;;;;;;;3.58;1.70;;;17.40;45.90;;;;;;5031368;28;45418;-86
2022/01/08 05:27:17;;;;;;;3.33;1.55;;;17.40;45.80;;;;;;5037152;28;46458;-86
2022/01/08 05:29:45;;;;;;;2.60;1.50;;;17.40;45.50;;;;;;5028768;28;46047;-86
2022/01/08 05:32:16;;;;;;;3.35;1.73;;;17.40;45.10;;;;;;5037170;28;45339;-86
2022/01/08 05:34:44;;;;;;;3.50;1.83;;;17.40;45.80;;;;;;5038442;28;45219;-85
2022/01/08 05:37:12;;;;;;;2.88;1.70;;;15.90;47.30;;;;;;5037730;28;48766;-85
2022/01/08 05:39:40;;;;;;;2.90;1.73;;;17.10;47.10;;;;;;5037479;28;45206;-85
2022/01/08 05:42:09;;;;;;;3.42;2.17;;;17.70;50.40;;;;;;5018721;28;45232;-84
2022/01/08 05:44:36;;;;;;;3.03;1.90;;;17.80;47.40;;;;;;5022403;28;45156;-84
2022/01/08 05:47:04;;;;;;;3.70;1.60;;;17.30;45.80;;;;;;5030800;28;45378;-84
2022/01/08 05:49:31;;;;;;;3.45;2.03;;;17.40;47.00;;;;;;5034359;28;46203;-85
2022/01/08 05:51:59;;;;;;;2.88;1.75;;;15.60;49.80;;;;;;5018617;28;45131;-84
2022/01/08 05:54:26;;;;;;;3.50;1.88;;;17.70;48.00;;;;;;5035218;28;45415;-84
2022/01/08 05:56:55;;;;;;;3.05;2.08;;;17.30;47.00;;;;;;5039807;28;47306;-84
2022/01/08 05:59:26;;;;;;;2.92;1.85;;;17.30;44.70;;;;;;5042951;28;44837;-84
2022/01/08 06:01:54;;;;;;;3.10;1.60;;;17.40;45.50;;;;;;5036793;28;45206;-84
2022/01/08 06:04:21;;;;;;;2.92;1.58;;;17.40;45.50;;;;;;5037724;28;45156;-84
2022/01/08 06:06:48;;;;;;;3.08;1.65;;;17.40;45.50;;;;;;5038355;28;46603;-85
2022/01/08 06:09:16;;;;;;;3.30;1.65;;;17.40;45.70;;;;;;5039877;28;45764;-85
2022/01/08 06:11:43;;;;;;;2.75;1.50;;;17.40;46.10;;;;;;5039672;28;45283;-84
2022/01/08 06:14:10;;;;;;;2.45;1.80;;;17.40;45.70;;;;;;5042019;28;45308;-84
2022/01/08 06:16:39;;;;;;;4.43;1.70;;;17.40;45.60;;;;;;5022378;28;46460;-84
2022/01/08 06:19:08;;;;;;;3.60;1.77;;;17.40;45.00;;;;;;5039160;28;45326;-84
2022/01/08 06:21:36;;;;;;;3.33;1.67;;;17.30;44.80;;;;;;5038278;28;45261;-85
2022/01/08 06:24:03;;;;;;;3.67;1.77;;;17.30;44.80;;;;;;5039524;28;45461;-85
2022/01/08 06:26:30;;;;;;;3.60;1.80;;;17.30;44.60;;;;;;5034621;28;47434;-85
2022/01/08 06:29:00;;;;;;;3.15;1.83;;;17.30;44.90;;;;;;5040100;28;46403;-84
2022/01/08 06:31:27;;;;;;;3.10;1.80;;;17.30;44.80;;;;;;5023093;28;45265;-85
2022/01/08 06:33:56;;;;;;;4.13;1.83;;;17.30;44.50;;;;;;5041734;28;45249;-85
2022/01/08 06:36:24;;;;;;;3.45;1.58;;;17.30;44.50;;;;;;5040283;28;47672;-85
2022/01/08 06:38:53;;;;;;;3.10;1.40;;;17.30;44.80;;;;;;5038912;28;45394;-85
2022/01/08 06:41:20;;;;;;;2.55;1.30;;;17.30;44.70;;;;;;5040105;28;45399;-85
2022/01/08 06:43:48;;;;;;;3.38;1.73;;;17.30;44.80;;;;;;5038136;28;45348;-85
2022/01/08 06:46:16;;;;;;;2.55;1.45;;;17.30;44.60;;;;;;5034514;28;46523;-85
2022/01/08 06:48:43;;;;;;;4.15;1.92;;;17.30;45.10;;;;;;5039588;28;45242;-86
2022/01/08 06:51:12;;;;;;;3.20;1.67;;;17.30;45.20;;;;;;5039575;28;45351;-85
2022/01/08 06:53:40;;;;;;;2.65;1.60;;;17.30;45.30;;;;;;5039928;28;45095;-84
2022/01/08 06:56:07;;;;;;;2.92;1.60;;;17.40;45.40;;;;;;5037540;28;48396;-85
2022/01/08 06:58:35;;;;;;;1.83;1.05;;;17.40;45.30;;;;;;5032740;28;45209;-85
2022/01/08 07:01:02;;;;;;;2.88;1.80;;;17.40;45.50;;;;;;5039415;28;45225;-85
2022/01/08 07:03:29;;;;;;;3.53;1.73;;;17.30;45.20;;;;;;5044157;28;45489;-85
2022/01/08 07:05:56;;;;;;;3.63;1.80;;;17.30;44.40;;;;;;5041893;28;47320;-85
2022/01/08 07:08:25;;;;;;;3.63;1.77;;;17.30;44.60;;;;;;5020567;28;45171;-85
2022/01/08 07:10:52;;;;;;;3.28;1.70;;;17.30;44.50;;;;;;5032804;28;45670;-85
2022/01/08 07:13:20;;;;;;;4.03;1.50;;;17.30;44.50;;;;;;5037076;28;44979;-85
2022/01/08 07:15:47;;;;;;;3.55;1.75;;;17.30;44.50;;;;;;5036703;28;46305;-87
2022/01/08 07:18:14;;;;;;;2.95;1.55;;;17.30;44.60;;;;;;5037060;28;45217;-86
2022/01/08 07:20:41;;;;;;;3.15;1.40;;;17.30;44.80;;;;;;5038475;28;45186;-84
2022/01/08 07:23:09;;;;;;;1.95;1.48;;;17.30;44.90;;;;;;5036653;28;45433;-85
2022/01/08 07:25:38;;;;;;;2.78;1.45;;;17.20;44.80;;;;;;5033496;28;48463;-84
2022/01/08 07:28:06;;;;;;;3.15;1.40;;;17.20;44.70;;;;;;5035468;28;45937;-84
2022/01/08 07:30:33;;;;;;;2.70;1.42;;;17.20;45.00;;;;;;5032843;28;45201;-85
2022/01/08 07:33:02;;;;;;;2.67;1.20;;;17.20;45.10;;;;;;5038375;28;45222;-84
2022/01/08 07:35:32;;;;;;;2.13;1.23;;;17.20;45.20;;;;;;5037160;28;46657;-84
2022/01/08 07:38:11;;;;;;;2.15;1.27;;;17.30;45.10;;;;;;5035638;28;45233;-84
2022/01/08 07:40:42;;;;;;;2.83;1.50;;;17.20;45.20;;;;;;5034915;28;45489;-85
2022/01/08 07:43:11;;;;;;;2.67;1.55;;;17.30;45.10;;;;;;5031188;28;44854;-84
2022/01/08 07:45:40;;;;;;;3.40;1.60;;;17.30;45.00;;;;;;5034215;28;46504;-85
2022/01/08 07:48:10;;;;;;;2.67;1.42;;;17.30;44.80;;;;;;5038176;28;45170;-84
2022/01/08 07:51:00;;;;;;;1.90;1.38;;;17.30;44.70;;;;;;5005510;28;45134;-85
2022/01/08 07:53:28;;;;;;;4.13;1.67;;;17.30;44.40;;;;;;5028792;28;45543;-85
2022/01/08 07:55:58;;;;;;;2.65;1.40;;;17.30;44.40;;;;;;5036530;28;47521;-83
2022/01/08 07:58:28;;;;;;;5.03;1.95;;;17.30;44.60;;;;;;5032867;28;45513;-84
2022/01/08 08:00:55;;;;;;;2.38;1.63;;;17.30;45.60;;;;;;5031961;28;45230;-83
2022/01/08 08:03:23;;;;;;;2.97;1.95;;;17.30;44.40;;;;;;5028798;28;45589;-84
2022/01/08 08:05:53;;;;;;;2.88;1.65;;;17.30;44.30;;;;;;5029639;28;46798;-83
2022/01/08 08:08:21;;;;;;;2.25;1.70;;;17.30;44.40;;;;;;5024866;28;45343;-83
2022/01/08 08:10:52;;;;;;;2.72;1.92;;;17.30;44.40;;;;;;5028716;28;45240;-83
2022/01/08 08:13:25;;;;;;;3.35;1.65;;;17.30;44.30;;;;;;5028120;28;45539;-83
2022/01/08 08:15:53;;;;;;;2.83;1.70;;;17.30;44.40;;;;;;5021449;28;47169;-83
2022/01/08 08:18:24;;;;;;;4.05;1.80;;;17.30;44.40;;;;;;5026498;28;45420;-83
2022/01/08 08:20:57;;;;;;;3.38;1.58;;;17.30;44.70;;;;;;5030346;28;45258;-84
2022/01/08 08:23:26;;;;;;;3.72;1.58;;;17.30;44.70;;;;;;5024527;28;45162;-84
2022/01/08 08:26:00;;;;;;;3.70;1.90;;;17.40;45.10;;;;;;5029602;28;47571;-84
2022/01/08 08:28:37;;;;;;;3.33;1.85;;;17.40;44.80;;;;;;5027779;28;45383;-84
2022/01/08 08:31:13;;;;;;;3.55;1.92;;;17.40;44.80;;;;;;5026984;28;45578;-85
2022/01/08 08:33:54;;;;;;;3.67;1.63;;;17.40;44.80;;;;;;5039051;28;44807;-85
2022/01/08 08:36:24;;;;;;;5.07;1.63;;;17.40;45.20;;;;;;5038670;28;45535;-86
2022/01/08 08:38:51;;;;;;;3.42;2.10;;;17.30;45.50;;;;;;5036465;28;45876;-85
2022/01/08 08:41:21;;;;;;;3.55;1.90;;;17.30;45.40;;;;;;5031120;28;45105;-86
2022/01/08 08:43:57;;;;;;;3.17;1.92;;;17.30;45.20;;;;;;5037719;28;45250;-87
2022/01/08 08:46:25;;;;;;;3.63;2.13;;;17.30;45.30;;;;;;5039906;28;47786;-87
2022/01/08 08:48:53;;;;;;;3.25;1.70;;;17.30;46.60;;;;;;5039992;28;45964;-85
2022/01/08 08:51:22;;;;;;;2.92;2.00;;;17.30;46.20;;;;;;5038038;28;45197;-85
2022/01/08 08:53:50;;;;;;;4.82;2.13;;;17.30;49.70;;;;;;5036482;28;45265;-86
2022/01/08 08:56:17;;;;;;;2.83;1.92;;;18.80;52.60;;;;;;5038044;28;47790;-86
2022/01/08 08:58:46;;;;;;;3.42;1.83;;;17.30;50.50;;;;;;5033870;28;46473;-86
2022/01/08 09:01:17;;;;;;;2.85;2.13;;;17.60;45.30;;;;;;5044430;28;45473;-85
2022/01/08 09:03:56;;;;;;;3.03;2.08;;;17.30;45.50;;;;;;5040274;28;44842;-86
2022/01/08 09:06:26;;;;;;;3.92;2.10;;;17.30;50.70;;;;;;5021471;28;47718;-87
2022/01/08 09:08:55;;;;;;;3.40;1.90;;;17.20;52.70;;;;;;5040147;28;45266;-86
2022/01/08 09:11:22;;;;;;;4.90;2.38;;;17.60;47.00;;;;;;5043731;28;45214;-86
2022/01/08 09:13:51;;;;;;;3.88;2.10;;;17.30;48.20;;;;;;5041555;28;45347;-85
2022/01/08 09:16:23;;;;;;;4.53;2.30;;;17.40;52.50;;;;;;5037903;28;48709;-86
2022/01/08 09:18:52;;;;;;;4.85;2.78;;;17.40;49.00;;;;;;5035870;28;45327;-86
2022/01/08 09:21:21;;;;;;;5.15;2.28;;;17.60;44.60;;;;;;5042908;28;46401;-86
2022/01/08 09:23:49;;;;;;;4.88;2.70;;;17.40;44.30;;;;;;5037137;28;45421;-85
2022/01/08 09:26:17;;;;;;;3.53;2.33;;;17.40;45.70;;;;;;5042161;28;48463;-87
2022/01/08 09:28:45;;;;;;;4.10;2.28;;;18.70;46.90;;;;;;5025777;28;45074;-86
2022/01/08 09:31:13;;;;;;;3.47;2.05;;;17.30;52.30;;;;;;5037428;28;45164;-84
2022/01/08 09:33:50;;;;;;;4.07;1.95;;;17.40;49.40;;;;;;5039083;28;45474;-84
2022/01/08 09:36:19;;;;;;;3.28;2.03;;;17.40;47.70;;;;;;5040807;28;45599;-85
2022/01/08 09:38:47;;;;;;;5.18;2.45;;;17.70;47.80;;;;;;5041822;28;45149;-83
2022/01/08 09:41:17;;;;;;;4.70;2.53;;;17.40;47.10;;;;;;5030595;28;45456;-84
2022/01/08 09:43:53;;;;;;;3.60;1.90;;;17.40;46.50;;;;;;5034430;28;45299;-84
2022/01/08 09:46:24;;;;;;;3.95;2.33;;;17.40;46.20;;;;;;5037412;28;47715;-83
2022/01/08 09:48:55;;;;;;;3.40;1.77;;;17.40;46.50;;;;;;5044854;28;45189;-84
2022/01/08 09:51:22;;;;;;;10.43;2.20;;;17.40;47.70;;;;;;5042092;28;44961;-87
2022/01/08 09:53:58;;;;;;;4.65;2.10;;;17.40;47.70;;;;;;5029589;28;45261;-87
2022/01/08 09:56:28;;;;;;;2.90;2.00;;;17.40;47.70;;;;;;5031172;28;45564;-87
2022/01/08 09:58:58;;;;;;;4.97;2.35;;;17.50;50.40;;;;;;5039762;28;45307;-85
2022/01/08 10:04:25;;;;;;;3.65;2.00;;;18.60;49.80;;;;;;5039528;28;45213;-87
2022/01/08 10:06:56;;;;;;;4.45;1.80;;;17.50;46.80;;;;;;5040083;28;48337;-84
2022/01/08 10:09:24;;;;;;;4.85;2.45;;;19.10;54.60;;;;;;5046184;28;45429;-83
2022/01/08 10:11:53;;;;;;;3.58;1.98;;;17.50;47.40;;;;;;5047430;28;44857;-85
2022/01/08 10:14:39;;;;;;;3.15;1.88;;;17.50;48.00;;;;;;5034214;28;45229;-85
2022/01/08 10:17:15;;;;;;;4.97;1.83;;;17.60;47.80;;;;;;5058222;28;47653;-87
2022/01/08 10:19:48;;;;;;;3.78;2.13;;;17.50;47.70;;;;;;5041445;28;45146;-87
2022/01/08 10:22:19;;;;;;;2.60;1.73;;;17.60;47.70;;;;;;5032355;28;45181;-82
2022/01/08 10:28:02;;;;;;;2.92;1.83;;;17.60;47.10;;;;;;5035893;28;45675;-87
2022/01/08 10:30:36;;;;;;;4.40;1.95;;;17.60;46.50;;;;;;5024093;28;45279;-87
2022/01/08 10:33:09;;;;;;;3.30;1.90;;;18.60;54.50;;;;;;5042510;28;44830;-87
2022/01/08 10:35:56;;;;;;;3.25;1.88;;;17.60;46.10;;;;;;5042105;28;45169;-87
2022/01/08 10:38:32;;;;;;;2.47;1.73;;;17.70;53.70;;;;;;5042315;28;47379;-87
2022/01/08 10:41:04;;;;;;;3.38;2.13;;;20.00;49.00;;;;;;5045526;28;45330;-88
2022/01/08 10:43:34;;;;;;;2.15;1.30;;;17.60;45.70;;;;;;5059913;28;45227;-85
2022/01/08 10:46:13;;;;;;;4.20;2.03;;;18.90;53.00;;;;;;5062254;28;45181;-87
2022/01/08 10:48:45;;;;;;;3.20;1.67;;;18.90;47.10;;;;;;5054025;28;46690;-88
2022/01/08 10:51:26;;;;;;;3.13;1.80;;;17.60;46.20;;;;;;5041186;28;45771;-88
2022/01/08 10:54:11;;;;;;;2.60;1.40;;;15.90;45.10;;;;;;5041411;28;45142;-88
2022/01/08 10:56:46;;;;;;;2.83;1.60;;;17.50;45.50;;;;;;5043051;28;45178;-86
2022/01/08 10:59:18;;;;;;;1.65;1.17;;;19.00;47.70;;;;;;5040352;28;48067;-87
2022/01/08 11:01:59;;;;;;;2.97;1.40;;;16.80;49.20;;;;;;5044172;28;45142;-87
2022/01/08 11:04:43;;;;;;;2.85;1.30;;;17.90;47.40;;;;;;5049253;28;45424;-86
2022/01/08 11:07:16;;;;;;;2.22;1.27;;;15.40;44.80;;;;;;5025000;28;45239;-86
2022/01/08 11:09:47;;;;;;;1.80;1.23;;;17.50;46.60;;;;;;5041388;28;46870;-87
2022/01/08 11:15:36;;;;;;;1.52;1.20;;;18.10;48.50;;;;;;5033362;28;45524;-86
2022/01/08 11:18:04;;;;;;;1.50;1.00;;;17.70;47.40;;;;;;5025885;28;45170;-85
2022/01/08 11:20:33;;;;;;;4.70;1.52;;;18.30;53.50;;;;;;5042173;28;45648;-86
2022/01/08 11:23:04;;;;;;;1.88;1.00;;;17.70;49.90;;;;;;5041760;28;45311;-86
2022/01/08 11:25:35;;;;;;;2.53;1.10;;;17.30;45.30;;;;;;5040948;28;45153;-86
2022/01/08 11:28:05;;;;;;;2.28;1.13;;;17.80;49.80;;;;;;5041411;28;45232;-86
2022/01/08 11:30:36;;;;;;;1.80;0.90;;;19.50;48.60;;;;;;5042078;28;46769;-86
2022/01/08 11:33:06;;;;;;;2.15;1.10;;;17.80;45.00;;;;;;5041719;28;45192;-86
2022/01/08 11:35:35;;;;;;;2.97;1.10;;;17.80;49.90;;;;;;5039835;28;45292;-86
2022/01/08 11:38:07;;;;;;;2.55;0.95;;;17.90;48.50;;;;;;5061730;28;45368;-84
2022/01/08 11:40:39;;;;;;;3.10;1.10;;;17.60;51.20;;;;;;5028052;28;48374;-86
2022/01/08 11:43:08;;;;;;;1.75;1.08;;;18.90;51.90;;;;;;5040635;28;44713;-85
2022/01/08 11:45:40;;;;;;;1.63;0.80;;;17.90;51.50;;;;;;5040069;28;45181;-85
2022/01/08 11:48:10;;;;;;;1.85;0.98;;;17.40;48.00;;;;;;5040417;28;45147;-85
2022/01/08 11:50:37;;;;;;;1.75;0.93;;;17.60;44.80;;;;;;5040929;28;47399;-86
2022/01/08 11:53:21;;;;;;;1.70;1.00;;;17.60;44.60;;;;;;5039810;28;45376;-85
2022/01/08 11:55:50;;;;;;;1.65;0.90;;;17.60;44.80;;;;;;5050093;28;45232;-85
2022/01/08 11:58:20;;;;;;;0.95;0.80;;;17.60;44.80;;;;;;5060562;28;45185;-85
2022/01/08 12:00:54;;;;;;;2.20;1.00;;;17.60;44.60;;;;;;5041960;28;46661;-86
2022/01/08 12:03:36;;;;;;;4.55;1.10;;;17.60;44.80;;;;;;5022123;28;45253;-87
2022/01/08 12:06:49;;;;;;;2.22;1.00;;;17.60;44.60;;;;;;5038881;28;45162;-87
2022/01/08 12:09:23;;;;;;;3.17;1.00;;;17.60;44.70;;;;;;5026137;28;45392;-86
2022/01/08 12:12:04;;;;;;;1.13;1.00;;;16.90;45.70;;;;;;5042186;28;47543;-87
2022/01/08 12:14:49;;;;;;;1.23;0.70;;;16.30;43.70;;;;;;5021072;28;45413;-87
2022/01/08 12:17:22;;;;;;;1.05;0.63;;;17.70;49.20;;;;;;5038628;28;45222;-87
2022/01/08 12:19:55;;;;;;;1.80;1.00;;;17.70;50.10;;;;;;5031485;28;45395;-86
2022/01/08 12:22:36;;;;;;;1.38;0.70;;;17.70;44.60;;;;;;5038030;28;46087;-86
2022/01/08 12:25:14;;;;;;;1.67;0.80;;;17.90;47.40;;;;;;5035704;28;45445;-85
2022/01/08 12:27:45;;;;;;;3.70;1.10;;;17.60;44.90;;;;;;5036026;28;45122;-86
2022/01/08 12:30:37;;;;;;;1.55;0.90;;;17.60;44.80;;;;;;5039327;28;45317;-87
2022/01/08 12:33:43;;;;;;;2.35;1.02;;;17.60;44.80;;;;;;5041420;28;47622;-87
2022/01/08 12:36:33;;;;;;;2.58;0.70;;;17.70;44.90;;;;;;5039442;28;45312;-87
2022/01/08 12:39:08;;;;;;;0.70;0.60;;;17.70;44.60;;;;;;5036173;28;45545;-88
2022/01/08 12:41:39;;;;;;;1.10;0.73;;;17.70;49.20;;;;;;5034881;28;45328;-87
2022/01/08 12:44:26;;;;;;;2.05;0.90;;;17.50;44.90;;;;;;5033580;28;48366;-87
2022/01/08 12:46:56;;;;;;;1.27;0.70;;;17.40;47.10;;;;;;5022602;28;45158;-87
2022/01/08 12:49:25;;;;;;;1.25;0.68;;;18.60;48.90;;;;;;5039043;28;45354;-86
2022/01/08 12:52:10;;;;;;;1.67;0.85;;;16.70;50.30;;;;;;5040561;28;45279;-86
2022/01/08 12:54:45;;;;;;;2.35;0.70;;;17.70;44.60;;;;;;5039074;28;46809;-86
2022/01/08 12:57:16;;;;;;;1.33;0.70;;;18.60;48.20;;;;;;5040171;28;45300;-87
2022/01/08 12:59:47;;;;;;;1.35;0.80;;;17.40;45.40;;;;;;5040657;28;45192;-87
2022/01/08 13:02:18;;;;;;;1.63;0.80;;;17.40;45.40;;;;;;5039869;28;45123;-86
2022/01/08 13:04:57;;;;;;;3.55;0.90;;;17.40;46.50;;;;;;5032640;28;47661;-86
2022/01/08 13:07:24;;;;;;;2.17;0.65;;;17.40;48.90;;;;;;5032954;28;45681;-86
2022/01/08 13:10:00;;;;;;;1.30;0.77;;;17.50;49.10;;;;;;5040184;28;45528;-85
2022/01/08 13:12:29;;;;;;;1.85;0.90;;;18.00;48.80;;;;;;5037197;28;45162;-85
2022/01/08 13:15:02;;;;;;;1.75;0.90;;;17.50;45.70;;;;;;5022041;28;46386;-86
2022/01/08 13:17:30;;;;;;;2.15;0.77;;;17.50;45.30;;;;;;5054836;28;44713;-86
2022/01/08 13:20:05;;;;;;;1.60;0.85;;;17.50;47.80;;;;;;5031577;28;44832;-86
2022/01/08 13:22:34;;;;;;;0.70;0.60;;;17.50;45.80;;;;;;5035337;28;45419;-85
2022/01/08 13:25:03;;;;;;;1.38;0.90;;;19.10;54.60;;;;;;5043202;28;45512;-86
2022/01/08 13:27:32;;;;;;;2.70;0.70;;;17.40;53.50;;;;;;5041849;28;45512;-84